createdAt,value
2023-02-04T00:00:33.326Z,40.18
2023-02-04T00:01:33.094Z,40.18
2023-02-04T00:02:33.097Z,40.12
2023-02-04T00:03:33.041Z,40.23
2023-02-04T00:04:33.033Z,40.18
2023-02-04T00:05:33.064Z,40.18
2023-02-04T00:06:33.000Z,40.12
2023-02-04T00:07:32.984Z,40.12
2023-02-04T00:08:32.969Z,40.12
2023-02-04T00:09:32.956Z,40.12
2023-02-04T00:10:33.345Z,40.23
2023-02-04T00:11:32.939Z,40.12
2023-02-04T00:12:32.918Z,40.12
2023-02-04T00:13:32.920Z,40.12
2023-02-04T00:14:32.905Z,40.23
2023-02-04T00:15:32.892Z,40.18
2023-02-04T00:16:32.864Z,40.23
2023-02-04T00:17:32.890Z,40.12
2023-02-04T00:18:32.840Z,40.18
2023-02-04T00:19:32.831Z,40.12
2023-02-04T00:20:33.073Z,40.12
2023-02-04T00:21:32.821Z,40.18
2023-02-04T00:22:32.797Z,40.12
2023-02-04T00:23:32.778Z,40.18
2023-02-04T00:24:32.770Z,40.01
2023-02-04T00:25:32.752Z,40.12
2023-02-04T00:26:32.742Z,40.12
2023-02-04T00:27:32.743Z,40.12
2023-02-04T00:28:32.718Z,40.18
2023-02-04T00:29:32.734Z,40.18
2023-02-04T00:30:32.985Z,40.18
2023-02-04T00:31:32.819Z,40.23
2023-02-04T00:32:32.672Z,40.23
2023-02-04T00:33:32.675Z,40.18
2023-02-04T00:34:32.634Z,40.12
2023-02-04T00:35:32.620Z,40.18
2023-02-04T00:36:32.611Z,40.23
2023-02-04T00:37:32.602Z,40.18
2023-02-04T00:38:32.590Z,40.23
2023-02-04T00:39:32.581Z,40.28
2023-02-04T00:40:32.898Z,40.23
2023-02-04T00:41:32.556Z,40.07
2023-02-04T00:42:32.532Z,40.18
2023-02-04T00:43:32.525Z,40.23
2023-02-04T00:44:32.513Z,40.18
2023-02-04T00:45:32.587Z,40.07
2023-02-04T00:46:32.490Z,40.12
2023-02-04T00:47:32.468Z,40.23
2023-02-04T00:48:32.462Z,40.12
2023-02-04T00:49:32.474Z,40.18
2023-02-04T00:50:32.763Z,40.12
2023-02-04T00:51:32.421Z,40.18
2023-02-04T00:52:32.420Z,40.18
2023-02-04T00:53:32.399Z,40.23
2023-02-04T00:54:32.378Z,40.12
2023-02-04T00:55:32.369Z,40.12
2023-02-04T00:56:32.358Z,40.12
2023-02-04T00:57:32.350Z,40.12
2023-02-04T00:58:32.333Z,40.18
2023-02-04T00:59:32.321Z,40.07
2023-02-04T01:00:32.750Z,40.23
2023-02-04T01:01:32.296Z,40.07
2023-02-04T01:02:32.373Z,40.12
2023-02-04T01:03:32.269Z,40.12
2023-02-04T01:04:32.253Z,40.23
2023-02-04T01:05:32.276Z,40.18
2023-02-04T01:06:33.267Z,40.12
2023-02-04T01:07:32.357Z,40.23
2023-02-04T01:08:32.221Z,40.18
2023-02-04T01:09:32.198Z,40.23
2023-02-04T01:10:32.622Z,40.12
2023-02-04T01:11:32.166Z,40.18
2023-02-04T01:12:32.149Z,40.18
2023-02-04T01:13:32.153Z,40.12
2023-02-04T01:14:32.128Z,40.18
2023-02-04T01:15:32.153Z,40.12
2023-02-04T01:16:32.211Z,40.28
2023-02-04T01:17:32.095Z,42.44
2023-02-04T01:18:32.087Z,40.18
2023-02-04T01:19:32.069Z,40.18
2023-02-04T01:20:32.246Z,40.12
2023-02-04T01:21:32.069Z,40.12
2023-02-04T01:22:32.028Z,40.18
2023-02-04T01:23:32.025Z,40.18
2023-02-04T01:24:31.994Z,40.12
2023-02-04T01:25:32.001Z,40.12
2023-02-04T01:26:31.980Z,40.23
2023-02-04T01:27:31.967Z,40.23
2023-02-04T01:28:31.945Z,40.12
2023-02-04T01:29:31.960Z,40.12
2023-02-04T01:30:32.247Z,40.18
2023-02-04T01:31:31.940Z,40.18
2023-02-04T01:32:31.894Z,40.18
2023-02-04T01:33:31.884Z,40.28
2023-02-04T01:34:31.880Z,40.18
2023-02-04T01:35:31.863Z,40.18
2023-02-04T01:36:31.859Z,40.12
2023-02-04T01:37:31.865Z,40.12
2023-02-04T01:38:31.841Z,40.12
2023-02-04T01:39:31.812Z,40.18
2023-02-04T01:40:32.225Z,40.23
2023-02-04T01:41:31.783Z,40.23
2023-02-04T01:42:31.776Z,40.18
2023-02-04T01:43:31.771Z,40.18
2023-02-04T01:44:31.751Z,40.23
2023-02-04T01:45:31.757Z,40.18
2023-02-04T01:46:31.718Z,40.12
2023-02-04T01:47:31.708Z,40.12
2023-02-04T01:48:31.698Z,40.18
2023-02-04T01:49:31.686Z,40.18
2023-02-04T01:50:32.085Z,40.18
2023-02-04T01:51:31.648Z,40.18
2023-02-04T01:52:31.636Z,40.18
2023-02-04T01:53:31.646Z,40.18
2023-02-04T01:54:31.615Z,40.28
2023-02-04T01:55:31.600Z,40.18
2023-02-04T01:56:31.589Z,40.18
2023-02-04T01:57:31.598Z,40.18
2023-02-04T01:58:31.564Z,40.12
2023-02-04T01:59:31.544Z,40.12
2023-02-04T02:00:31.968Z,40.12
2023-02-04T02:01:31.581Z,40.12
2023-02-04T02:02:31.546Z,40.23
2023-02-04T02:03:31.496Z,40.12
2023-02-04T02:04:31.492Z,40.18
2023-02-04T02:05:31.473Z,40.12
2023-02-04T02:06:31.453Z,40.12
2023-02-04T02:07:31.450Z,40.07
2023-02-04T02:08:31.428Z,40.18
2023-02-04T02:09:31.438Z,40.12
2023-02-04T02:10:31.730Z,40.12
2023-02-04T02:11:31.395Z,40.12
2023-02-04T02:12:31.376Z,40.07
2023-02-04T02:13:31.380Z,40.12
2023-02-04T02:14:31.370Z,40.12
2023-02-04T02:15:31.350Z,40.23
2023-02-04T02:16:31.381Z,40.12
2023-02-04T02:17:31.314Z,40.12
2023-02-04T02:18:31.304Z,40.12
2023-02-04T02:19:31.296Z,40.18
2023-02-04T02:20:31.669Z,40.18
2023-02-04T02:21:31.268Z,40.23
2023-02-04T02:22:31.256Z,40.18
2023-02-04T02:23:31.238Z,42.66
2023-02-04T02:24:31.228Z,40.23
2023-02-04T02:25:31.237Z,40.18
2023-02-04T02:26:31.206Z,40.12
2023-02-04T02:27:31.196Z,40.23
2023-02-04T02:28:31.190Z,40.12
2023-02-04T02:29:31.166Z,40.18
2023-02-04T02:30:31.604Z,40.23
2023-02-04T02:31:31.229Z,40.12
2023-02-04T02:32:31.127Z,40.12
2023-02-04T02:33:31.118Z,40.12
2023-02-04T02:34:31.122Z,40.28
2023-02-04T02:35:31.101Z,40.18
2023-02-04T02:36:31.082Z,40.23
2023-02-04T02:37:31.072Z,40.28
2023-02-04T02:38:31.048Z,40.18
2023-02-04T02:39:31.044Z,40.12
2023-02-04T02:40:31.427Z,40.18
2023-02-04T02:41:31.045Z,40.12
2023-02-04T02:42:31.004Z,40.18
2023-02-04T02:43:30.994Z,40.12
2023-02-04T02:44:30.981Z,40.12
2023-02-04T02:45:30.969Z,42.39
2023-02-04T02:46:31.013Z,40.12
2023-02-04T02:47:30.945Z,42.55
2023-02-04T02:48:30.925Z,40.18
2023-02-04T02:49:30.906Z,42.55
2023-02-04T02:50:31.337Z,40.18
2023-02-04T02:51:30.886Z,40.07
2023-02-04T02:52:30.880Z,40.07
2023-02-04T02:53:30.854Z,40.18
2023-02-04T02:54:30.851Z,42.44
2023-02-04T02:55:30.827Z,42.50
2023-02-04T02:56:30.823Z,40.18
2023-02-04T02:57:30.825Z,40.12
2023-02-04T02:58:30.798Z,40.23
2023-02-04T02:59:30.783Z,42.61
2023-02-04T03:00:31.257Z,40.12
2023-02-04T03:01:30.831Z,40.18
2023-02-04T03:02:30.850Z,40.18
2023-02-04T03:03:30.735Z,40.12
2023-02-04T03:04:30.718Z,40.28
2023-02-04T03:05:30.709Z,40.18
2023-02-04T03:06:30.696Z,42.55
2023-02-04T03:07:30.685Z,40.28
2023-02-04T03:08:30.662Z,40.12
2023-02-04T03:09:30.657Z,42.44
2023-02-04T03:10:31.088Z,40.12
2023-02-04T03:11:30.624Z,42.55
2023-02-04T03:12:30.622Z,40.12
2023-02-04T03:13:30.633Z,40.12
2023-02-04T03:14:30.601Z,40.12
2023-02-04T03:15:30.705Z,40.18
2023-02-04T03:16:30.569Z,40.18
2023-02-04T03:17:30.557Z,42.44
2023-02-04T03:18:30.568Z,40.18
2023-02-04T03:19:30.533Z,40.28
2023-02-04T03:20:30.946Z,40.12
2023-02-04T03:21:30.516Z,40.23
2023-02-04T03:22:30.522Z,40.12
2023-02-04T03:23:30.492Z,42.50
2023-02-04T03:24:30.489Z,42.55
2023-02-04T03:25:30.463Z,40.23
2023-02-04T03:26:30.442Z,40.18
2023-02-04T03:27:30.434Z,40.12
2023-02-04T03:28:30.428Z,42.50
2023-02-04T03:29:30.445Z,40.18
2023-02-04T03:30:30.765Z,42.50
2023-02-04T03:31:30.593Z,40.23
2023-02-04T03:32:30.376Z,42.44
2023-02-04T03:33:30.364Z,40.12
2023-02-04T03:34:30.354Z,42.50
2023-02-04T03:35:30.333Z,40.28
2023-02-04T03:36:30.319Z,42.55
2023-02-04T03:37:30.317Z,42.50
2023-02-04T03:38:30.311Z,42.50
2023-02-04T03:39:30.286Z,40.18
2023-02-04T03:40:30.732Z,42.50
2023-02-04T03:41:30.266Z,40.12
2023-02-04T03:42:30.254Z,42.44
2023-02-04T03:43:31.588Z,40.12
2023-02-04T03:44:30.222Z,40.18
2023-02-04T03:45:37.534Z,42.55
2023-02-04T03:46:31.331Z,42.55
2023-02-04T03:47:30.180Z,42.55
2023-02-04T03:48:30.181Z,40.12
2023-02-04T03:49:30.162Z,40.18
2023-02-04T03:50:30.500Z,40.12
2023-02-04T03:51:30.129Z,40.07
2023-02-04T03:52:30.123Z,42.50
2023-02-04T03:53:30.120Z,42.44
2023-02-04T03:54:30.112Z,40.18
2023-02-04T03:55:30.091Z,40.28
2023-02-04T03:56:30.071Z,42.44
2023-02-04T03:57:30.067Z,42.50
2023-02-04T03:58:30.053Z,40.18
2023-02-04T03:59:30.054Z,42.55
2023-02-04T04:00:30.349Z,42.55
2023-02-04T04:01:30.099Z,42.39
2023-02-04T04:02:30.040Z,40.12
2023-02-04T04:03:29.991Z,42.61
2023-02-04T04:04:29.990Z,42.50
2023-02-04T04:05:29.959Z,42.50
2023-02-04T04:06:29.955Z,42.55
2023-02-04T04:07:29.937Z,42.61
2023-02-04T04:08:29.938Z,42.50
2023-02-04T04:09:29.922Z,42.55
2023-02-04T04:10:30.188Z,40.18
2023-02-04T04:11:29.890Z,40.12
2023-02-04T04:12:29.882Z,42.61
2023-02-04T04:13:29.883Z,40.12
2023-02-04T04:14:29.859Z,40.12
2023-02-04T04:15:29.844Z,42.61
2023-02-04T04:16:29.828Z,42.50
2023-02-04T04:17:29.847Z,42.44
2023-02-04T04:18:29.797Z,42.44
2023-02-04T04:19:29.788Z,42.50
2023-02-04T04:20:30.121Z,42.44
2023-02-04T04:21:29.774Z,42.61
2023-02-04T04:22:29.756Z,42.44
2023-02-04T04:23:29.742Z,42.50
2023-02-04T04:24:29.738Z,40.12
2023-02-04T04:25:29.719Z,42.61
2023-02-04T04:26:29.699Z,42.55
2023-02-04T04:27:29.691Z,42.50
2023-02-04T04:28:29.682Z,42.55
2023-02-04T04:29:29.661Z,42.50
2023-02-04T04:30:30.163Z,42.50
2023-02-04T04:31:29.790Z,42.55
2023-02-04T04:32:29.629Z,42.50
2023-02-04T04:33:29.640Z,42.50
2023-02-04T04:34:29.604Z,42.55
2023-02-04T04:35:29.579Z,42.50
2023-02-04T04:36:29.576Z,42.50
2023-02-04T04:37:29.579Z,42.55
2023-02-04T04:38:29.575Z,42.50
2023-02-04T04:39:29.553Z,42.50
2023-02-04T04:40:29.753Z,42.50
2023-02-04T04:41:29.544Z,42.44
2023-02-04T04:42:29.553Z,42.44
2023-02-04T04:43:29.493Z,42.50
2023-02-04T04:44:29.470Z,42.44
2023-02-04T04:45:29.475Z,42.50
2023-02-04T04:46:29.478Z,42.50
2023-02-04T04:47:29.445Z,42.50
2023-02-04T04:48:29.425Z,42.44
2023-02-04T04:49:29.436Z,42.50
2023-02-04T04:50:29.737Z,42.44
2023-02-04T04:51:29.380Z,42.50
2023-02-04T04:52:29.364Z,42.50
2023-02-04T04:53:29.383Z,42.55
2023-02-04T04:54:29.339Z,42.50
2023-02-04T04:55:29.327Z,42.44
2023-02-04T04:56:29.315Z,42.50
2023-02-04T04:57:29.311Z,42.50
2023-02-04T04:58:29.291Z,42.44
2023-02-04T04:59:29.283Z,42.44
2023-02-04T05:00:29.470Z,42.44
2023-02-04T05:01:29.251Z,45.09
2023-02-04T05:02:29.249Z,42.55
2023-02-04T05:03:29.231Z,42.44
2023-02-04T05:04:29.247Z,42.55
2023-02-04T05:05:29.234Z,42.55
2023-02-04T05:06:29.197Z,42.55
2023-02-04T05:07:29.180Z,42.50
2023-02-04T05:08:29.164Z,42.50
2023-02-04T05:09:29.155Z,45.09
2023-02-04T05:10:29.269Z,42.55
2023-02-04T05:11:29.139Z,42.50
2023-02-04T05:12:29.128Z,45.09
2023-02-04T05:13:29.102Z,45.04
2023-02-04T05:14:29.098Z,45.09
2023-02-04T05:15:29.075Z,42.55
2023-02-04T05:16:29.268Z,45.09
2023-02-04T05:17:29.054Z,45.14
2023-02-04T05:18:29.040Z,45.09
2023-02-04T05:19:29.024Z,45.04
2023-02-04T05:20:29.163Z,45.04
2023-02-04T05:21:29.032Z,44.98
2023-02-04T05:22:28.989Z,45.14
2023-02-04T05:23:28.981Z,45.04
2023-02-04T05:24:28.973Z,45.14
2023-02-04T05:25:28.969Z,45.09
2023-02-04T05:26:31.023Z,45.04
2023-02-04T05:27:28.940Z,45.09
2023-02-04T05:28:28.917Z,45.09
2023-02-04T05:29:28.897Z,44.98
2023-02-04T05:30:28.959Z,45.04
2023-02-04T05:31:28.917Z,45.09
2023-02-04T05:32:28.866Z,44.98
2023-02-04T05:33:28.855Z,45.04
2023-02-04T05:34:28.836Z,45.04
2023-02-04T05:35:28.829Z,45.09
2023-02-04T05:36:28.815Z,45.09
2023-02-04T05:37:28.828Z,45.09
2023-02-04T05:38:28.788Z,44.98
2023-02-04T05:39:28.779Z,45.14
2023-02-04T05:40:28.804Z,45.14
2023-02-04T05:41:28.744Z,45.04
2023-02-04T05:42:28.759Z,45.09
2023-02-04T05:43:28.729Z,45.09
2023-02-04T05:44:28.730Z,44.98
2023-02-04T05:45:28.736Z,47.52
2023-02-04T05:46:28.690Z,45.09
2023-02-04T05:47:28.672Z,45.09
2023-02-04T05:48:28.658Z,45.09
2023-02-04T05:49:28.654Z,45.09
2023-02-04T05:50:28.648Z,45.04
2023-02-04T05:51:28.628Z,45.09
2023-02-04T05:52:28.616Z,45.04
2023-02-04T05:53:28.620Z,45.09
2023-02-04T05:54:28.586Z,47.68
2023-02-04T05:55:28.580Z,45.09
2023-02-04T05:56:28.563Z,44.98
2023-02-04T05:57:28.555Z,45.09
2023-02-04T05:58:28.531Z,45.09
2023-02-04T05:59:28.518Z,47.63
2023-02-04T06:00:28.511Z,44.98
2023-02-04T06:01:28.510Z,47.57
2023-02-04T06:02:28.488Z,45.14
2023-02-04T06:03:28.549Z,47.57
2023-02-04T06:04:28.516Z,46.93
2023-02-04T06:05:28.459Z,47.63
2023-02-04T06:06:28.438Z,47.63
2023-02-04T06:07:28.428Z,47.63
2023-02-04T06:08:28.409Z,45.14
2023-02-04T06:09:28.422Z,47.68
2023-02-04T06:10:28.419Z,47.63
2023-02-04T06:11:28.369Z,47.52
2023-02-04T06:12:28.360Z,47.63
2023-02-04T06:13:28.343Z,47.52
2023-02-04T06:14:28.333Z,47.52
2023-02-04T06:15:28.332Z,47.57
2023-02-04T06:16:28.380Z,47.52
2023-02-04T06:17:28.309Z,47.52
2023-02-04T06:18:28.296Z,47.52
2023-02-04T06:19:28.273Z,47.74
2023-02-04T06:20:28.266Z,47.79
2023-02-04T06:21:28.259Z,47.52
2023-02-04T06:22:28.231Z,47.52
2023-02-04T06:23:28.224Z,47.68
2023-02-04T06:24:28.212Z,47.63
2023-02-04T06:25:28.262Z,47.52
2023-02-04T06:26:28.195Z,47.63
2023-02-04T06:27:28.184Z,47.68
2023-02-04T06:28:28.163Z,47.63
2023-02-04T06:29:28.152Z,47.63
2023-02-04T06:30:28.230Z,47.57
2023-02-04T06:31:28.286Z,47.63
2023-02-04T06:32:28.114Z,47.52
2023-02-04T06:33:28.099Z,47.57
2023-02-04T06:34:28.084Z,47.57
2023-02-04T06:35:28.079Z,47.52
2023-02-04T06:36:28.060Z,47.57
2023-02-04T06:37:28.063Z,47.52
2023-02-04T06:38:28.034Z,47.63
2023-02-04T06:39:28.029Z,47.63
2023-02-04T06:40:28.015Z,47.68
2023-02-04T06:41:28.026Z,47.68
2023-02-04T06:42:27.996Z,47.57
2023-02-04T06:43:28.106Z,47.57
2023-02-04T06:44:27.962Z,47.47
2023-02-04T06:45:27.946Z,47.57
2023-02-04T06:46:28.041Z,47.57
2023-02-04T06:47:27.931Z,47.52
2023-02-04T06:48:29.626Z,47.68
2023-02-04T06:49:27.919Z,47.74
2023-02-04T06:50:27.900Z,47.68
2023-02-04T06:51:27.885Z,47.63
2023-02-04T06:52:27.870Z,47.57
2023-02-04T06:53:27.864Z,47.57
2023-02-04T06:54:27.842Z,47.52
2023-02-04T06:55:27.838Z,47.63
2023-02-04T06:56:27.813Z,50.17
2023-02-04T06:57:27.831Z,47.57
2023-02-04T06:58:27.790Z,47.57
2023-02-04T06:59:27.770Z,47.63
2023-02-04T07:00:27.767Z,47.57
2023-02-04T07:01:27.799Z,47.68
2023-02-04T07:02:27.825Z,47.57
2023-02-04T07:03:27.729Z,47.63
2023-02-04T07:04:27.707Z,47.57
2023-02-04T07:05:27.695Z,47.63
2023-02-04T07:06:27.691Z,47.57
2023-02-04T07:07:27.669Z,47.68
2023-02-04T07:08:27.655Z,47.63
2023-02-04T07:09:27.649Z,47.63
2023-02-04T07:10:27.633Z,47.68
2023-02-04T07:11:27.619Z,47.52
2023-02-04T07:12:27.613Z,47.63
2023-02-04T07:13:27.622Z,50.06
2023-02-04T07:14:27.592Z,47.57
2023-02-04T07:15:27.750Z,50.06
2023-02-04T07:16:27.565Z,47.68
2023-02-04T07:17:27.560Z,47.57
2023-02-04T07:18:27.614Z,47.63
2023-02-04T07:19:27.521Z,47.57
2023-02-04T07:20:27.515Z,47.57
2023-02-04T07:21:27.503Z,50.11
2023-02-04T07:22:27.489Z,50.17
2023-02-04T07:23:27.480Z,50.22
2023-02-04T07:24:27.466Z,50.27
2023-02-04T07:25:27.458Z,47.63
2023-02-04T07:26:27.434Z,47.63
2023-02-04T07:27:27.447Z,47.57
2023-02-04T07:28:27.431Z,47.57
2023-02-04T07:29:27.422Z,50.11
2023-02-04T07:30:27.384Z,47.57
2023-02-04T07:31:27.555Z,47.57
2023-02-04T07:32:27.367Z,50.11
2023-02-04T07:33:27.346Z,47.63
2023-02-04T07:34:27.343Z,47.57
2023-02-04T07:35:27.324Z,47.57
2023-02-04T07:36:27.393Z,47.63
2023-02-04T07:37:27.302Z,47.63
2023-02-04T07:38:27.279Z,47.57
2023-02-04T07:39:27.278Z,47.52
2023-02-04T07:40:27.262Z,47.68
2023-02-04T07:41:27.252Z,50.06
2023-02-04T07:42:27.247Z,50.17
2023-02-04T07:43:27.223Z,47.57
2023-02-04T07:44:27.218Z,47.63
2023-02-04T07:45:27.226Z,50.06
2023-02-04T07:46:27.269Z,50.11
2023-02-04T07:47:27.162Z,50.22
2023-02-04T07:48:27.153Z,50.06
2023-02-04T07:49:27.155Z,50.11
2023-02-04T07:50:27.121Z,47.52
2023-02-04T07:51:28.038Z,50.17
2023-02-04T07:52:27.107Z,50.22
2023-02-04T07:53:27.095Z,50.22
2023-02-04T07:54:27.103Z,50.17
2023-02-04T07:55:27.077Z,50.11
2023-02-04T07:56:27.046Z,50.06
2023-02-04T07:57:27.043Z,50.06
2023-02-04T07:58:27.023Z,50.17
2023-02-04T07:59:27.011Z,47.57
2023-02-04T08:00:26.995Z,50.11
2023-02-04T08:01:27.052Z,50.22
2023-02-04T08:02:27.057Z,50.11
2023-02-04T08:03:26.957Z,50.17
2023-02-04T08:04:26.945Z,50.11
2023-02-04T08:05:26.940Z,50.11
2023-02-04T08:06:26.931Z,50.11
2023-02-04T08:07:26.915Z,50.06
2023-02-04T08:08:26.898Z,50.17
2023-02-04T08:09:26.884Z,50.11
2023-02-04T08:10:26.886Z,50.11
2023-02-04T08:11:26.858Z,50.11
2023-02-04T08:12:26.853Z,50.22
2023-02-04T08:13:26.836Z,50.11
2023-02-04T08:14:26.833Z,50.17
2023-02-04T08:15:26.814Z,50.17
2023-02-04T08:16:26.873Z,50.17
2023-02-04T08:17:26.806Z,50.11
2023-02-04T08:18:26.779Z,50.17
2023-02-04T08:19:26.764Z,50.06
2023-02-04T08:20:26.766Z,50.11
2023-02-04T08:21:26.726Z,50.22
2023-02-04T08:22:26.719Z,50.22
2023-02-04T08:23:26.714Z,50.11
2023-02-04T08:24:26.696Z,50.11
2023-02-04T08:25:26.681Z,50.17
2023-02-04T08:26:26.666Z,50.17
2023-02-04T08:27:26.660Z,50.06
2023-02-04T08:28:26.646Z,50.11
2023-02-04T08:29:26.633Z,50.11
2023-02-04T08:30:26.686Z,50.06
2023-02-04T08:31:26.693Z,50.22
2023-02-04T08:32:26.588Z,50.11
2023-02-04T08:33:26.599Z,50.22
2023-02-04T08:34:26.570Z,50.11
2023-02-04T08:35:26.557Z,50.22
2023-02-04T08:36:26.542Z,50.11
2023-02-04T08:37:26.523Z,50.11
2023-02-04T08:38:26.524Z,50.11
2023-02-04T08:39:26.510Z,50.22
2023-02-04T08:40:26.549Z,50.11
2023-02-04T08:41:26.486Z,50.11
2023-02-04T08:42:26.461Z,50.11
2023-02-04T08:43:26.452Z,50.22
2023-02-04T08:44:26.441Z,50.17
2023-02-04T08:45:26.430Z,50.11
2023-02-04T08:46:26.443Z,50.11
2023-02-04T08:47:26.412Z,50.22
2023-02-04T08:48:26.404Z,50.06
2023-02-04T08:49:26.422Z,50.11
2023-02-04T08:50:26.376Z,50.22
2023-02-04T08:51:26.374Z,50.11
2023-02-04T08:52:26.355Z,50.11
2023-02-04T08:53:26.362Z,50.17
2023-02-04T08:54:26.373Z,50.17
2023-02-04T08:55:26.323Z,50.17
2023-02-04T08:56:26.326Z,50.06
2023-02-04T08:57:26.300Z,50.22
2023-02-04T08:58:26.287Z,50.17
2023-02-04T08:59:26.288Z,47.57
2023-02-04T09:00:26.263Z,50.11
2023-02-04T09:01:26.259Z,50.06
2023-02-04T09:02:26.351Z,50.17
2023-02-04T09:03:26.245Z,50.06
2023-02-04T09:04:26.227Z,50.17
2023-02-04T09:05:26.249Z,50.11
2023-02-04T09:06:26.192Z,50.11
2023-02-04T09:07:26.202Z,50.06
2023-02-04T09:08:26.183Z,50.06
2023-02-04T09:09:26.485Z,50.17
2023-02-04T09:10:26.150Z,50.11
2023-02-04T09:11:26.135Z,50.17
2023-02-04T09:12:26.123Z,50.17
2023-02-04T09:13:26.112Z,50.17
2023-02-04T09:14:26.098Z,50.22
2023-02-04T09:15:26.102Z,50.11
2023-02-04T09:16:26.067Z,50.11
2023-02-04T09:17:26.065Z,50.11
2023-02-04T09:18:26.056Z,50.11
2023-02-04T09:19:26.056Z,50.11
2023-02-04T09:20:26.025Z,50.06
2023-02-04T09:21:26.042Z,50.11
2023-02-04T09:22:25.996Z,50.11
2023-02-04T09:23:26.002Z,50.11
2023-02-04T09:24:25.975Z,50.06
2023-02-04T09:25:25.959Z,50.17
2023-02-04T09:26:25.954Z,50.11
2023-02-04T09:27:25.947Z,50.00
2023-02-04T09:28:25.919Z,50.22
2023-02-04T09:29:25.927Z,50.11
2023-02-04T09:30:25.907Z,50.17
2023-02-04T09:31:26.047Z,50.00
2023-02-04T09:32:25.867Z,50.11
2023-02-04T09:33:25.858Z,50.11
2023-02-04T09:34:25.853Z,50.11
2023-02-04T09:35:25.833Z,50.17
2023-02-04T09:36:25.823Z,50.11
2023-02-04T09:37:25.847Z,50.06
2023-02-04T09:38:25.809Z,50.11
2023-02-04T09:39:25.789Z,50.22
2023-02-04T09:40:25.776Z,50.17
2023-02-04T09:41:25.763Z,50.11
2023-02-04T09:42:25.745Z,50.27
2023-02-04T09:43:25.770Z,50.17
2023-02-04T09:44:25.734Z,50.17
2023-02-04T09:45:25.719Z,50.11
2023-02-04T09:46:25.699Z,50.11
2023-02-04T09:47:25.699Z,50.11
2023-02-04T09:48:25.685Z,50.11
2023-02-04T09:49:25.661Z,50.06
2023-02-04T09:50:25.654Z,50.17
2023-02-04T09:51:25.632Z,50.06
2023-02-04T09:52:25.627Z,50.11
2023-02-04T09:53:25.623Z,50.11
2023-02-04T09:54:25.593Z,50.17
2023-02-04T09:55:25.569Z,50.11
2023-02-04T09:56:25.566Z,50.22
2023-02-04T09:57:25.553Z,50.17
2023-02-04T09:58:25.530Z,50.17
2023-02-04T09:59:25.527Z,50.17
2023-02-04T10:00:25.499Z,50.22
2023-02-04T10:01:25.691Z,50.11
2023-02-04T10:02:25.474Z,50.17
2023-02-04T10:03:25.476Z,50.17
2023-02-04T10:04:25.457Z,50.11
2023-02-04T10:05:25.440Z,50.11
2023-02-04T10:06:25.426Z,50.11
2023-02-04T10:07:25.423Z,50.17
2023-02-04T10:08:25.406Z,50.11
2023-02-04T10:09:25.410Z,50.06
2023-02-04T10:10:25.375Z,50.11
2023-02-04T10:11:25.354Z,50.11
2023-02-04T10:12:25.348Z,50.22
2023-02-04T10:13:25.322Z,50.17
2023-02-04T10:14:25.326Z,50.11
2023-02-04T10:15:25.300Z,50.06
2023-02-04T10:16:25.354Z,50.11
2023-02-04T10:17:25.269Z,50.11
2023-02-04T10:18:25.268Z,50.11
2023-02-04T10:19:25.246Z,50.11
2023-02-04T10:20:25.257Z,50.22
2023-02-04T10:21:25.218Z,50.11
2023-02-04T10:22:25.205Z,50.11
2023-02-04T10:23:25.202Z,50.11
2023-02-04T10:24:25.192Z,50.17
2023-02-04T10:25:25.182Z,50.22
2023-02-04T10:26:25.183Z,50.17
2023-02-04T10:27:25.149Z,50.17
2023-02-04T10:28:25.133Z,47.52
2023-02-04T10:29:25.127Z,50.17
2023-02-04T10:30:25.160Z,50.17
2023-02-04T10:31:25.236Z,50.17
2023-02-04T10:32:25.085Z,50.06
2023-02-04T10:33:25.085Z,50.06
2023-02-04T10:34:25.055Z,50.11
2023-02-04T10:35:25.049Z,50.17
2023-02-04T10:36:25.046Z,50.11
2023-02-04T10:37:25.022Z,50.17
2023-02-04T10:38:25.010Z,50.17
2023-02-04T10:39:24.989Z,50.11
2023-02-04T10:40:24.999Z,50.11
2023-02-04T10:41:25.005Z,50.11
2023-02-04T10:42:24.956Z,47.57
2023-02-04T10:43:24.948Z,50.06
2023-02-04T10:44:24.928Z,50.17
2023-02-04T10:45:24.924Z,50.06
2023-02-04T10:46:24.994Z,50.11
2023-02-04T10:47:24.900Z,50.06
2023-02-04T10:48:24.876Z,50.17
2023-02-04T10:49:24.873Z,48.22
2023-02-04T10:50:24.862Z,47.57
2023-02-04T10:51:24.846Z,50.17
2023-02-04T10:52:24.829Z,50.17
2023-02-04T10:53:24.828Z,50.27
2023-02-04T10:54:24.811Z,50.06
2023-02-04T10:55:24.792Z,50.11
2023-02-04T10:56:24.786Z,47.57
2023-02-04T10:57:24.805Z,50.11
2023-02-04T10:58:24.752Z,50.17
2023-02-04T10:59:24.741Z,50.17
2023-02-04T11:00:24.752Z,50.17
2023-02-04T11:01:24.727Z,47.68
2023-02-04T11:02:24.708Z,50.22
2023-02-04T11:03:24.711Z,50.17
2023-02-04T11:04:24.690Z,50.11
2023-02-04T11:05:24.662Z,47.57
2023-02-04T11:06:24.658Z,47.68
2023-02-04T11:07:24.639Z,47.63
2023-02-04T11:08:24.647Z,47.57
2023-02-04T11:09:24.630Z,47.63
2023-02-04T11:10:24.619Z,50.22
2023-02-04T11:11:24.588Z,50.11
2023-02-04T11:12:24.577Z,47.57
2023-02-04T11:13:24.589Z,47.52
2023-02-04T11:14:24.563Z,47.52
2023-02-04T11:15:24.551Z,47.63
2023-02-04T11:16:24.561Z,47.57
2023-02-04T11:17:24.518Z,47.63
2023-02-04T11:18:24.508Z,47.68
2023-02-04T11:19:25.306Z,47.63
2023-02-04T11:20:24.481Z,47.57
2023-02-04T11:21:24.477Z,50.06
2023-02-04T11:22:24.461Z,47.63
2023-02-04T11:23:24.443Z,47.52
2023-02-04T11:24:24.424Z,47.57
2023-02-04T11:25:24.411Z,47.63
2023-02-04T11:26:24.418Z,47.57
2023-02-04T11:27:24.402Z,47.63
2023-02-04T11:28:24.387Z,47.57
2023-02-04T11:29:24.395Z,47.74
2023-02-04T11:30:24.352Z,47.63
2023-02-04T11:31:24.495Z,47.63
2023-02-04T11:32:24.324Z,47.57
2023-02-04T11:33:24.331Z,47.57
2023-02-04T11:34:24.309Z,47.63
2023-02-04T11:35:24.293Z,47.74
2023-02-04T11:36:24.272Z,47.52
2023-02-04T11:37:24.264Z,50.06
2023-02-04T11:38:24.245Z,47.63
2023-02-04T11:39:24.240Z,47.68
2023-02-04T11:40:24.224Z,47.57
2023-02-04T11:41:24.218Z,47.52
2023-02-04T11:42:24.195Z,47.63
2023-02-04T11:43:24.196Z,47.68
2023-02-04T11:44:24.167Z,47.63
2023-02-04T11:45:24.178Z,47.63
2023-02-04T11:46:24.206Z,47.57
2023-02-04T11:47:24.141Z,47.68
2023-02-04T11:48:24.123Z,47.63
2023-02-04T11:49:24.099Z,47.52
2023-02-04T11:50:24.093Z,47.57
2023-02-04T11:51:24.081Z,47.63
2023-02-04T11:52:24.072Z,47.68
2023-02-04T11:53:24.058Z,47.63
2023-02-04T11:54:24.037Z,47.57
2023-02-04T11:55:24.032Z,47.57
2023-02-04T11:56:24.021Z,47.68
2023-02-04T11:57:23.999Z,47.63
2023-02-04T11:58:23.996Z,47.68
2023-02-04T11:59:23.982Z,47.57
2023-02-04T12:00:23.969Z,47.63
2023-02-04T12:01:23.981Z,47.57
2023-02-04T12:02:23.996Z,47.57
2023-02-04T12:03:23.944Z,47.68
2023-02-04T12:04:23.922Z,47.63
2023-02-04T12:05:23.930Z,47.57
2023-02-04T12:06:23.888Z,47.57
2023-02-04T12:07:23.880Z,47.57
2023-02-04T12:08:23.855Z,47.63
2023-02-04T12:09:23.868Z,47.63
2023-02-04T12:10:23.832Z,47.68
2023-02-04T12:11:23.818Z,47.57
2023-02-04T12:12:23.810Z,47.68
2023-02-04T12:13:23.797Z,47.57
2023-02-04T12:14:23.783Z,47.68
2023-02-04T12:15:23.782Z,47.57
2023-02-04T12:16:23.805Z,47.57
2023-02-04T12:17:23.764Z,47.68
2023-02-04T12:18:23.743Z,47.63
2023-02-04T12:19:23.727Z,47.57
2023-02-04T12:20:23.709Z,50.11
2023-02-04T12:21:23.708Z,47.68
2023-02-04T12:22:23.701Z,47.63
2023-02-04T12:23:23.663Z,47.68
2023-02-04T12:24:23.656Z,47.57
2023-02-04T12:25:23.638Z,47.57
2023-02-04T12:26:23.633Z,47.52
2023-02-04T12:27:23.618Z,47.52
2023-02-04T12:28:23.605Z,47.57
2023-02-04T12:29:23.593Z,47.52
2023-02-04T12:30:23.592Z,47.57
2023-02-04T12:31:23.728Z,47.57
2023-02-04T12:32:23.573Z,47.63
2023-02-04T12:33:23.552Z,47.57
2023-02-04T12:34:23.526Z,47.63
2023-02-04T12:35:23.511Z,47.57
2023-02-04T12:36:23.514Z,47.52
2023-02-04T12:37:23.517Z,47.68
2023-02-04T12:38:23.495Z,47.57
2023-02-04T12:39:23.468Z,47.57
2023-02-04T12:40:23.444Z,47.63
2023-02-04T12:41:23.442Z,47.63
2023-02-04T12:42:23.428Z,47.63
2023-02-04T12:43:23.421Z,47.57
2023-02-04T12:44:23.407Z,47.63
2023-02-04T12:45:23.378Z,47.63
2023-02-04T12:46:23.458Z,47.63
2023-02-04T12:47:23.361Z,47.68
2023-02-04T12:48:23.471Z,47.57
2023-02-04T12:49:23.361Z,47.63
2023-02-04T12:50:23.333Z,47.52
2023-02-04T12:51:23.316Z,47.57
2023-02-04T12:52:23.304Z,47.63